sensor_id;sensor_type;location;lat;lon;timestamp;pressure;altitude;pressure_sealevel;temperature;humidity
78073;BME280;67281;48.770;11.440;2023-07-08T00:01:17;97474.81;;;26.11;36.96
78073;BME280;67281;48.770;11.440;2023-07-08T00:03:45;97476.88;;;26.09;36.86
78073;BME280;67281;48.770;11.440;2023-07-08T00:06:18;97478.31;;;26.05;37.09
78073;BME280;67281;48.770;11.440;2023-07-08T00:08:46;97476.44;;;26.05;36.84
78073;BME280;67281;48.770;11.440;2023-07-08T00:11:14;97477.06;;;26.07;37.03
78073;BME280;67281;48.770;11.440;2023-07-08T00:13:41;97473.75;;;26.05;37.45
78073;BME280;67281;48.770;11.440;2023-07-08T00:16:11;97460.72;;;26.02;36.87
78073;BME280;67281;48.770;11.440;2023-07-08T00:18:38;97459.06;;;26.01;37.32
78073;BME280;67281;48.770;11.440;2023-07-08T00:21:10;97461.75;;;26.01;36.88
78073;BME280;67281;48.770;11.440;2023-07-08T00:26:18;97458.03;;;25.96;36.67
78073;BME280;67281;48.770;11.440;2023-07-08T00:28:46;97459.06;;;25.95;37.07
78073;BME280;67281;48.770;11.440;2023-07-08T00:31:12;97464.25;;;25.96;37.05
78073;BME280;67281;48.770;11.440;2023-07-08T00:33:40;97465.06;;;25.97;37.55
78073;BME280;67281;48.770;11.440;2023-07-08T00:36:11;97457.41;;;25.94;36.87
78073;BME280;67281;48.770;11.440;2023-07-08T00:38:39;97454.72;;;25.94;37.55
78073;BME280;67281;48.770;11.440;2023-07-08T00:41:28;97452.44;;;25.91;37.58
78073;BME280;67281;48.770;11.440;2023-07-08T00:43:58;97453.47;;;25.90;37.22
78073;BME280;67281;48.770;11.440;2023-07-08T00:46:33;97458.00;;;25.89;37.31
78073;BME280;67281;48.770;11.440;2023-07-08T00:51:37;97455.72;;;25.86;36.92
78073;BME280;67281;48.770;11.440;2023-07-08T00:54:12;97454.06;;;25.85;37.35
78073;BME280;67281;48.770;11.440;2023-07-08T00:57:00;97458.81;;;25.83;37.09
78073;BME280;67281;48.770;11.440;2023-07-08T00:59:32;97457.16;;;25.82;37.23
78073;BME280;67281;48.770;11.440;2023-07-08T01:02:04;97451.97;;;25.80;37.36
78073;BME280;67281;48.770;11.440;2023-07-08T01:04:41;97453.19;;;25.78;37.39
78073;BME280;67281;48.770;11.440;2023-07-08T01:07:11;97452.38;;;25.77;37.23
78073;BME280;67281;48.770;11.440;2023-07-08T01:09:44;97459.59;;;25.77;37.62
78073;BME280;67281;48.770;11.440;2023-07-08T01:12:16;97458.97;;;25.75;37.13
78073;BME280;67281;48.770;11.440;2023-07-08T01:14:45;97456.66;;;25.72;37.61
78073;BME280;67281;48.770;11.440;2023-07-08T01:17:14;97450.66;;;25.70;37.27
78073;BME280;67281;48.770;11.440;2023-07-08T01:19:43;97454.38;;;25.69;37.33
78073;BME280;67281;48.770;11.440;2023-07-08T01:22:11;97455.13;;;25.63;37.17
78073;BME280;67281;48.770;11.440;2023-07-08T01:24:40;97447.47;;;25.60;37.48
78073;BME280;67281;48.770;11.440;2023-07-08T01:27:10;97445.63;;;25.60;37.47
78073;BME280;67281;48.770;11.440;2023-07-08T01:29:38;97439.44;;;25.60;37.54
78073;BME280;67281;48.770;11.440;2023-07-08T01:32:05;97443.53;;;25.55;37.21
78073;BME280;67281;48.770;11.440;2023-07-08T01:34:33;97447.88;;;25.57;37.27
78073;BME280;67281;48.770;11.440;2023-07-08T01:37:04;97454.66;;;25.52;36.78
78073;BME280;67281;48.770;11.440;2023-07-08T01:39:32;97447.81;;;25.50;36.79
78073;BME280;67281;48.770;11.440;2023-07-08T01:41:59;97452.38;;;25.49;37.12
78073;BME280;67281;48.770;11.440;2023-07-08T01:44:32;97458.13;;;25.46;37.57
78073;BME280;67281;48.770;11.440;2023-07-08T01:47:16;97465.53;;;25.44;37.23
78073;BME280;67281;48.770;11.440;2023-07-08T01:49:46;97464.50;;;25.45;37.15
78073;BME280;67281;48.770;11.440;2023-07-08T01:52:15;97465.16;;;25.47;37.54
78073;BME280;67281;48.770;11.440;2023-07-08T01:54:44;97458.94;;;25.47;36.92
78073;BME280;67281;48.770;11.440;2023-07-08T01:57:10;97463.69;;;25.45;37.37
78073;BME280;67281;48.770;11.440;2023-07-08T01:59:37;97458.31;;;25.45;37.77
78073;BME280;67281;48.770;11.440;2023-07-08T02:02:04;97457.69;;;25.43;37.92
78073;BME280;67281;48.770;11.440;2023-07-08T02:04:31;97456.84;;;25.42;37.49
78073;BME280;67281;48.770;11.440;2023-07-08T02:06:59;97458.50;;;25.43;37.53
78073;BME280;67281;48.770;11.440;2023-07-08T02:09:27;97456.03;;;25.42;38.00
78073;BME280;67281;48.770;11.440;2023-07-08T02:11:54;97459.75;;;25.41;37.77
78073;BME280;67281;48.770;11.440;2023-07-08T02:14:22;97456.63;;;25.37;37.70
78073;BME280;67281;48.770;11.440;2023-07-08T02:16:49;97455.34;;;25.33;37.56
78073;BME280;67281;48.770;11.440;2023-07-08T02:19:16;97452.66;;;25.33;37.52
78073;BME280;67281;48.770;11.440;2023-07-08T02:21:42;97448.13;;;25.34;37.49
78073;BME280;67281;48.770;11.440;2023-07-08T02:24:09;97454.50;;;25.33;37.77
78073;BME280;67281;48.770;11.440;2023-07-08T02:26:36;97450.75;;;25.27;37.55
78073;BME280;67281;48.770;11.440;2023-07-08T02:29:03;97453.44;;;25.27;37.52
78073;BME280;67281;48.770;11.440;2023-07-08T02:31:30;97453.25;;;25.29;37.26
78073;BME280;67281;48.770;11.440;2023-07-08T02:33:57;97453.25;;;25.29;37.86
78073;BME280;67281;48.770;11.440;2023-07-08T02:36:24;97446.41;;;25.26;37.56
78073;BME280;67281;48.770;11.440;2023-07-08T02:38:51;97446.63;;;25.25;38.20
78073;BME280;67281;48.770;11.440;2023-07-08T02:41:18;97450.34;;;25.24;37.93
78073;BME280;67281;48.770;11.440;2023-07-08T02:43:45;97444.97;;;25.24;37.48
78073;BME280;67281;48.770;11.440;2023-07-08T02:46:12;97444.97;;;25.24;37.96
78073;BME280;67281;48.770;11.440;2023-07-08T02:48:39;97447.03;;;25.21;37.82
78073;BME280;67281;48.770;11.440;2023-07-08T02:51:06;97436.50;;;25.20;37.93
78073;BME280;67281;48.770;11.440;2023-07-08T02:53:35;97434.00;;;25.18;38.22
78073;BME280;67281;48.770;11.440;2023-07-08T02:56:02;97437.06;;;25.15;38.11
78073;BME280;67281;48.770;11.440;2023-07-08T02:58:29;97443.66;;;25.13;38.40
78073;BME280;67281;48.770;11.440;2023-07-08T03:00:57;97437.66;;;25.11;38.06
78073;BME280;67281;48.770;11.440;2023-07-08T03:03:28;97438.50;;;25.11;38.38
78073;BME280;67281;48.770;11.440;2023-07-08T03:06:00;97440.16;;;25.12;38.37
78073;BME280;67281;48.770;11.440;2023-07-08T03:08:29;97436.00;;;25.10;38.09
78073;BME280;67281;48.770;11.440;2023-07-08T03:10:59;97445.72;;;25.11;37.88
78073;BME280;67281;48.770;11.440;2023-07-08T03:13:28;97447.75;;;25.09;38.03
78073;BME280;67281;48.770;11.440;2023-07-08T03:15:56;97442.59;;;25.07;38.11
78073;BME280;67281;48.770;11.440;2023-07-08T03:18:23;97443.81;;;25.05;37.82
78073;BME280;67281;48.770;11.440;2023-07-08T03:20:50;97446.47;;;25.05;38.05
78073;BME280;67281;48.770;11.440;2023-07-08T03:23:17;97441.13;;;25.05;38.56
78073;BME280;67281;48.770;11.440;2023-07-08T03:25:44;97446.69;;;25.03;38.50
78073;BME280;67281;48.770;11.440;2023-07-08T03:28:11;97446.03;;;25.01;38.41
78073;BME280;67281;48.770;11.440;2023-07-08T03:30:42;97442.53;;;25.01;38.47
78073;BME280;67281;48.770;11.440;2023-07-08T03:33:09;97444.38;;;25.00;38.29
78073;BME280;67281;48.770;11.440;2023-07-08T03:35:37;97442.72;;;24.99;38.52
78073;BME280;67281;48.770;11.440;2023-07-08T03:38:05;97442.09;;;24.97;38.19
78073;BME280;67281;48.770;11.440;2023-07-08T03:40:32;97448.28;;;24.98;38.69
78073;BME280;67281;48.770;11.440;2023-07-08T03:42:59;97451.97;;;24.97;38.74
78073;BME280;67281;48.770;11.440;2023-07-08T03:45:26;97454.00;;;24.95;38.26
78073;BME280;67281;48.770;11.440;2023-07-08T03:47:53;97455.66;;;24.96;38.33
78073;BME280;67281;48.770;11.440;2023-07-08T03:50:22;97452.97;;;24.96;38.19
78073;BME280;67281;48.770;11.440;2023-07-08T03:52:50;97457.50;;;24.95;38.45
78073;BME280;67281;48.770;11.440;2023-07-08T03:55:18;97459.19;;;24.96;38.31
78073;BME280;67281;48.770;11.440;2023-07-08T03:57:45;97452.13;;;24.95;38.63
78073;BME280;67281;48.770;11.440;2023-07-08T04:00:12;97454.66;;;24.97;38.42
78073;BME280;67281;48.770;11.440;2023-07-08T04:02:40;97451.16;;;24.96;38.26
78073;BME280;67281;48.770;11.440;2023-07-08T04:05:15;97448.00;;;24.93;38.45
78073;BME280;67281;48.770;11.440;2023-07-08T04:07:42;97453.75;;;24.89;38.56
78073;BME280;67281;48.770;11.440;2023-07-08T04:10:12;97461.41;;;24.93;38.66
78073;BME280;67281;48.770;11.440;2023-07-08T04:12:39;97465.75;;;24.94;38.52
78073;BME280;67281;48.770;11.440;2023-07-08T04:15:10;97458.53;;;24.94;38.75
78073;BME280;67281;48.770;11.440;2023-07-08T04:17:48;97450.28;;;24.96;38.81
78073;BME280;67281;48.770;11.440;2023-07-08T04:20:17;97455.00;;;24.94;38.53
78073;BME280;67281;48.770;11.440;2023-07-08T04:22:46;97457.06;;;24.92;38.47
78073;BME280;67281;48.770;11.440;2023-07-08T04:25:13;97459.09;;;24.89;39.42
78073;BME280;67281;48.770;11.440;2023-07-08T04:27:41;97463.81;;;24.87;39.41
78073;BME280;67281;48.770;11.440;2023-07-08T04:30:17;97466.88;;;24.84;40.21
78073;BME280;67281;48.770;11.440;2023-07-08T04:32:46;97467.06;;;24.83;40.25
78073;BME280;67281;48.770;11.440;2023-07-08T04:35:14;97468.09;;;24.82;40.10
78073;BME280;67281;48.770;11.440;2023-07-08T04:37:41;97467.28;;;24.81;39.77
78073;BME280;67281;48.770;11.440;2023-07-08T04:40:19;97474.69;;;24.79;39.57
78073;BME280;67281;48.770;11.440;2023-07-08T04:42:47;97476.72;;;24.77;39.80
78073;BME280;67281;48.770;11.440;2023-07-08T04:45:15;97476.72;;;24.77;39.72
78073;BME280;67281;48.770;11.440;2023-07-08T04:47:43;97482.28;;;24.76;39.84
78073;BME280;67281;48.770;11.440;2023-07-08T04:50:13;97484.94;;;24.76;39.86
78073;BME280;67281;48.770;11.440;2023-07-08T04:52:40;97488.84;;;24.73;39.58
78073;BME280;67281;48.770;11.440;2023-07-08T04:55:07;97492.72;;;24.71;39.84
78073;BME280;67281;48.770;11.440;2023-07-08T04:57:36;97498.91;;;24.71;39.50
78073;BME280;67281;48.770;11.440;2023-07-08T05:00:04;97506.97;;;24.71;39.38
78073;BME280;67281;48.770;11.440;2023-07-08T05:02:33;97505.94;;;24.72;39.76
78073;BME280;67281;48.770;11.440;2023-07-08T05:05:00;97509.66;;;24.71;40.20
78073;BME280;67281;48.770;11.440;2023-07-08T05:07:27;97512.31;;;24.71;39.61
78073;BME280;67281;48.770;11.440;2023-07-08T05:09:54;97507.78;;;24.72;40.14
78073;BME280;67281;48.770;11.440;2023-07-08T05:12:21;97517.69;;;24.71;39.56
78073;BME280;67281;48.770;11.440;2023-07-08T05:14:48;97522.22;;;24.71;40.29
78073;BME280;67281;48.770;11.440;2023-07-08T05:17:14;97525.72;;;24.71;39.52
78073;BME280;67281;48.770;11.440;2023-07-08T05:19:41;97529.44;;;24.70;39.54
78073;BME280;67281;48.770;11.440;2023-07-08T05:22:11;97524.91;;;24.71;40.02
78073;BME280;67281;48.770;11.440;2023-07-08T05:24:38;97529.44;;;24.70;39.52
78073;BME280;67281;48.770;11.440;2023-07-08T05:27:04;97529.25;;;24.72;40.14
78073;BME280;67281;48.770;11.440;2023-07-08T05:29:31;97527.38;;;24.72;40.24
78073;BME280;67281;48.770;11.440;2023-07-08T05:31:58;97528.41;;;24.71;40.25
78073;BME280;67281;48.770;11.440;2023-07-08T05:34:25;97526.56;;;24.72;39.93
78073;BME280;67281;48.770;11.440;2023-07-08T05:36:52;97520.56;;;24.70;39.69
78073;BME280;67281;48.770;11.440;2023-07-08T05:39:19;97530.25;;;24.71;40.17
78073;BME280;67281;48.770;11.440;2023-07-08T05:41:45;97525.72;;;24.71;40.15
78073;BME280;67281;48.770;11.440;2023-07-08T05:44:12;97527.75;;;24.69;39.90
78073;BME280;67281;48.770;11.440;2023-07-08T05:46:39;97532.28;;;24.69;39.94
78073;BME280;67281;48.770;11.440;2023-07-08T05:49:06;97535.81;;;24.69;39.93
78073;BME280;67281;48.770;11.440;2023-07-08T05:51:34;97523.03;;;24.71;39.89
78073;BME280;67281;48.770;11.440;2023-07-08T05:54:01;97520.38;;;24.71;40.33
78073;BME280;67281;48.770;11.440;2023-07-08T05:56:28;97514.16;;;24.71;39.67
78073;BME280;67281;48.770;11.440;2023-07-08T05:58:57;97510.66;;;24.70;40.10
78073;BME280;67281;48.770;11.440;2023-07-08T06:01:23;97506.13;;;24.71;40.29
78073;BME280;67281;48.770;11.440;2023-07-08T06:03:50;97511.31;;;24.72;40.57
78073;BME280;67281;48.770;11.440;2023-07-08T06:06:17;97507.59;;;24.73;39.97
78073;BME280;67281;48.770;11.440;2023-07-08T06:08:44;97501.41;;;24.73;40.42
78073;BME280;67281;48.770;11.440;2023-07-08T06:11:11;97496.69;;;24.75;39.65
78073;BME280;67281;48.770;11.440;2023-07-08T06:13:38;97490.50;;;24.74;40.18
78073;BME280;67281;48.770;11.440;2023-07-08T06:16:05;97498.34;;;24.76;40.01
78073;BME280;67281;48.770;11.440;2023-07-08T06:18:32;97493.19;;;24.74;40.09
78073;BME280;67281;48.770;11.440;2023-07-08T06:20:59;97498.53;;;24.74;39.76
78073;BME280;67281;48.770;11.440;2023-07-08T06:23:27;97485.13;;;24.74;40.49
78073;BME280;67281;48.770;11.440;2023-07-08T06:25:53;97485.97;;;24.75;40.50
78073;BME280;67281;48.770;11.440;2023-07-08T06:28:21;97491.97;;;24.77;39.67
78073;BME280;67281;48.770;11.440;2023-07-08T06:30:48;97481.88;;;24.79;40.17
78073;BME280;67281;48.770;11.440;2023-07-08T06:33:16;97493.25;;;24.81;39.78
78073;BME280;67281;48.770;11.440;2023-07-08T06:35:43;97486.88;;;24.82;39.85
78073;BME280;67281;48.770;11.440;2023-07-08T06:38:10;97488.72;;;24.81;40.32
78073;BME280;67281;48.770;11.440;2023-07-08T06:40:37;97493.25;;;24.81;40.27
78073;BME280;67281;48.770;11.440;2023-07-08T06:43:04;97485.22;;;24.81;39.72
78073;BME280;67281;48.770;11.440;2023-07-08T06:45:30;97498.22;;;24.84;39.99
78073;BME280;67281;48.770;11.440;2023-07-08T06:47:57;97498.22;;;24.84;39.83
78073;BME280;67281;48.770;11.440;2023-07-08T06:50:24;97486.69;;;24.83;39.52
78073;BME280;67281;48.770;11.440;2023-07-08T06:52:51;97492.69;;;24.85;39.58
78073;BME280;67281;48.770;11.440;2023-07-08T06:55:18;97489.16;;;24.85;39.89
78073;BME280;67281;48.770;11.440;2023-07-08T06:57:45;97486.28;;;24.86;39.63
78073;BME280;67281;48.770;11.440;2023-07-08T07:00:12;97485.47;;;24.86;39.77
78073;BME280;67281;48.770;11.440;2023-07-08T07:02:39;97492.09;;;24.90;39.80
78073;BME280;67281;48.770;11.440;2023-07-08T07:05:06;97494.97;;;24.88;39.65
78073;BME280;67281;48.770;11.440;2023-07-08T07:07:33;97491.28;;;24.89;39.71
78073;BME280;67281;48.770;11.440;2023-07-08T07:10:02;97487.56;;;24.90;40.04
78073;BME280;67281;48.770;11.440;2023-07-08T07:12:30;97490.91;;;24.93;39.46
78073;BME280;67281;48.770;11.440;2023-07-08T07:14:56;97492.56;;;24.94;39.97
78073;BME280;67281;48.770;11.440;2023-07-08T07:17:24;97500.59;;;24.94;39.52
78073;BME280;67281;48.770;11.440;2023-07-08T07:19:53;97507.63;;;24.95;39.17
78073;BME280;67281;48.770;11.440;2023-07-08T07:22:20;97506.59;;;24.96;39.76
78073;BME280;67281;48.770;11.440;2023-07-08T07:24:48;97504.59;;;24.98;39.86
78073;BME280;67281;48.770;11.440;2023-07-08T07:27:15;97508.09;;;24.98;40.07
78073;BME280;67281;48.770;11.440;2023-07-08T07:29:45;97502.53;;;25.00;40.01
78073;BME280;67281;48.770;11.440;2023-07-08T07:32:14;97516.59;;;25.02;39.30
78073;BME280;67281;48.770;11.440;2023-07-08T07:34:41;97506.50;;;25.04;39.95
78073;BME280;67281;48.770;11.440;2023-07-08T07:37:15;97513.53;;;25.05;40.00
78073;BME280;67281;48.770;11.440;2023-07-08T07:39:42;97513.53;;;25.05;40.08
78073;BME280;67281;48.770;11.440;2023-07-08T07:42:10;97515.00;;;25.07;39.43
78073;BME280;67281;48.770;11.440;2023-07-08T07:44:39;97521.00;;;25.09;39.38
78073;BME280;67281;48.770;11.440;2023-07-08T07:47:09;97518.31;;;25.09;40.14
78073;BME280;67281;48.770;11.440;2023-07-08T07:49:36;97522.47;;;25.12;40.00
78073;BME280;67281;48.770;11.440;2023-07-08T07:52:04;97522.47;;;25.12;39.69
78073;BME280;67281;48.770;11.440;2023-07-08T07:54:31;97527.63;;;25.13;40.46
78073;BME280;67281;48.770;11.440;2023-07-08T07:56:57;97525.78;;;25.14;39.98
78073;BME280;67281;48.770;11.440;2023-07-08T07:59:25;97518.38;;;25.16;39.99
78073;BME280;67281;48.770;11.440;2023-07-08T08:01:52;97519.22;;;25.16;41.02
78073;BME280;67281;48.770;11.440;2023-07-08T08:04:18;97521.25;;;25.14;40.73
78073;BME280;67281;48.770;11.440;2023-07-08T08:06:45;97524.13;;;25.13;40.64
78073;BME280;67281;48.770;11.440;2023-07-08T08:09:13;97531.97;;;25.14;40.99
78073;BME280;67281;48.770;11.440;2023-07-08T08:11:40;97521.25;;;25.14;40.93
78073;BME280;67281;48.770;11.440;2023-07-08T08:14:07;97524.56;;;25.16;40.30
78073;BME280;67281;48.770;11.440;2023-07-08T08:16:34;97520.88;;;25.17;40.16
78073;BME280;67281;48.770;11.440;2023-07-08T08:19:01;97522.09;;;25.15;40.81
78073;BME280;67281;48.770;11.440;2023-07-08T08:21:28;97525.97;;;25.12;40.87
78073;BME280;67281;48.770;11.440;2023-07-08T08:23:54;97522.47;;;25.12;41.47
78073;BME280;67281;48.770;11.440;2023-07-08T08:26:21;97534.84;;;25.13;41.26
78073;BME280;67281;48.770;11.440;2023-07-08T08:28:48;97536.50;;;25.14;41.44
78073;BME280;67281;48.770;11.440;2023-07-08T08:31:15;97542.53;;;25.16;41.08
78073;BME280;67281;48.770;11.440;2023-07-08T08:33:41;97544.81;;;25.19;41.43
78073;BME280;67281;48.770;11.440;2023-07-08T08:36:08;97547.50;;;25.19;40.98
78073;BME280;67281;48.770;11.440;2023-07-08T08:38:35;97552.69;;;25.20;40.98
78073;BME280;67281;48.770;11.440;2023-07-08T08:41:19;97550.44;;;25.24;40.61
78073;BME280;67281;48.770;11.440;2023-07-08T08:43:48;97553.72;;;25.26;40.58
78073;BME280;67281;48.770;11.440;2023-07-08T08:46:25;97558.91;;;25.28;40.35
78073;BME280;67281;48.770;11.440;2023-07-08T08:51:24;97561.19;;;25.31;40.13
78073;BME280;67281;48.770;11.440;2023-07-08T08:53:55;97564.72;;;25.31;40.34
78073;BME280;67281;48.770;11.440;2023-07-08T08:56:25;97568.03;;;25.33;40.36
78073;BME280;67281;48.770;11.440;2023-07-08T08:59:12;97566.81;;;25.36;40.16
78073;BME280;67281;48.770;11.440;2023-07-08T09:01:44;97569.50;;;25.36;39.57
78073;BME280;67281;48.770;11.440;2023-07-08T09:04:32;97573.47;;;25.40;39.70
78073;BME280;67281;48.770;11.440;2023-07-08T09:07:07;97571.59;;;25.40;40.15
78073;BME280;67281;48.770;11.440;2023-07-08T09:09:42;97564.38;;;25.41;40.22
78073;BME280;67281;48.770;11.440;2023-07-08T09:12:17;97571.22;;;25.43;39.53
78073;BME280;67281;48.770;11.440;2023-07-08T09:14:45;97561.94;;;25.46;39.97
78073;BME280;67281;48.770;11.440;2023-07-08T09:19:59;97555.38;;;25.48;39.75
78073;BME280;67281;48.770;11.440;2023-07-08T09:27:42;97564.06;;;25.50;39.36
78073;BME280;67281;48.770;11.440;2023-07-08T09:30:17;97559.53;;;25.51;40.06
78073;BME280;67281;48.770;11.440;2023-07-08T09:32:45;97570.06;;;25.52;39.84
78073;BME280;67281;48.770;11.440;2023-07-08T09:35:26;97569.03;;;25.53;39.74
78073;BME280;67281;48.770;11.440;2023-07-08T09:37:55;97570.69;;;25.54;40.03
78073;BME280;67281;48.770;11.440;2023-07-08T09:40:30;97573.19;;;25.56;39.69
78073;BME280;67281;48.770;11.440;2023-07-08T09:43:25;97576.72;;;25.57;39.45
78073;BME280;67281;48.770;11.440;2023-07-08T09:45:58;97581.69;;;25.60;39.78
78073;BME280;67281;48.770;11.440;2023-07-08T09:48:28;97582.50;;;25.60;40.04
78073;BME280;67281;48.770;11.440;2023-07-08T09:50:58;97576.13;;;25.61;39.64
78073;BME280;67281;48.770;11.440;2023-07-08T09:53:26;97578.63;;;25.63;39.48
78073;BME280;67281;48.770;11.440;2023-07-08T09:55:56;97588.16;;;25.65;39.73
78073;BME280;67281;48.770;11.440;2023-07-08T09:58:33;97588.81;;;25.67;39.25
78073;BME280;67281;48.770;11.440;2023-07-08T10:01:17;97592.94;;;25.70;39.27
78073;BME280;67281;48.770;11.440;2023-07-08T10:03:46;97586.56;;;25.71;39.67
78073;BME280;67281;48.770;11.440;2023-07-08T10:06:21;97586.56;;;25.71;39.48
78073;BME280;67281;48.770;11.440;2023-07-08T10:08:49;97582.47;;;25.75;39.59
78073;BME280;67281;48.770;11.440;2023-07-08T10:11:29;97578.56;;;25.77;40.31
78073;BME280;67281;48.770;11.440;2023-07-08T10:14:47;97576.72;;;25.78;39.58
78073;BME280;67281;48.770;11.440;2023-07-08T10:16:47;97581.88;;;25.79;39.51
78073;BME280;67281;48.770;11.440;2023-07-08T10:19:16;97570.31;;;25.79;39.76
78073;BME280;67281;48.770;11.440;2023-07-08T10:25:06;97577.59;;;25.85;39.69
78073;BME280;67281;48.770;11.440;2023-07-08T10:27:43;97578.84;;;25.89;39.36
78073;BME280;67281;48.770;11.440;2023-07-08T10:30:21;97575.13;;;25.90;39.83
78073;BME280;67281;48.770;11.440;2023-07-08T10:35:31;97569.38;;;25.93;39.41
78073;BME280;67281;48.770;11.440;2023-07-08T10:38:22;97570.41;;;25.92;39.73
78073;BME280;67281;48.770;11.440;2023-07-08T10:40:55;97569.38;;;25.93;39.72
78073;BME280;67281;48.770;11.440;2023-07-08T10:46:31;97564.00;;;25.93;39.47
78073;BME280;67281;48.770;11.440;2023-07-08T10:52:04;97569.81;;;25.97;39.89
78073;BME280;67281;48.770;11.440;2023-07-08T10:55:08;97576.03;;;25.97;39.80
78073;BME280;67281;48.770;11.440;2023-07-08T10:57:51;97573.97;;;25.99;40.02
78073;BME280;67281;48.770;11.440;2023-07-08T11:00:31;97571.88;;;26.01;39.21
78073;BME280;67281;48.770;11.440;2023-07-08T11:03:20;97580.56;;;26.03;39.10
78073;BME280;67281;48.770;11.440;2023-07-08T11:06:03;97574.19;;;26.04;39.28
78073;BME280;67281;48.770;11.440;2023-07-08T11:08:39;97579.16;;;26.07;39.61
78073;BME280;67281;48.770;11.440;2023-07-08T11:11:32;97585.34;;;26.08;39.30
78073;BME280;67281;48.770;11.440;2023-07-08T11:14:13;97577.94;;;26.10;39.72
78073;BME280;67281;48.770;11.440;2023-07-08T11:16:52;97575.25;;;26.10;39.12
78073;BME280;67281;48.770;11.440;2023-07-08T11:19:27;97578.38;;;26.13;39.49
78073;BME280;67281;48.770;11.440;2023-07-08T11:22:00;97571.13;;;26.14;39.26
78073;BME280;67281;48.770;11.440;2023-07-08T11:24:35;97569.28;;;26.14;39.48
78073;BME280;67281;48.770;11.440;2023-07-08T11:29:51;97557.53;;;26.22;39.66
78073;BME280;67281;48.770;11.440;2023-07-08T11:32:23;97561.06;;;26.23;39.37
78073;BME280;67281;48.770;11.440;2023-07-08T11:34:54;97553.84;;;26.23;39.53
78073;BME280;67281;48.770;11.440;2023-07-08T11:37:22;97555.50;;;26.24;39.04
78073;BME280;67281;48.770;11.440;2023-07-08T11:40:21;97549.72;;;26.27;39.78
78073;BME280;67281;48.770;11.440;2023-07-08T11:42:51;97540.25;;;26.31;39.76
78073;BME280;67281;48.770;11.440;2023-07-08T11:45:34;97545.03;;;26.36;39.39
78073;BME280;67281;48.770;11.440;2023-07-08T11:48:13;97539.25;;;26.39;39.66
78073;BME280;67281;48.770;11.440;2023-07-08T11:50:44;97530.16;;;26.40;38.97
78073;BME280;67281;48.770;11.440;2023-07-08T11:56:02;97541.16;;;26.45;38.95
78073;BME280;67281;48.770;11.440;2023-07-08T11:59:05;97527.31;;;26.48;38.83
78073;BME280;67281;48.770;11.440;2023-07-08T12:09:25;97529.19;;;26.54;39.13
78073;BME280;67281;48.770;11.440;2023-07-08T12:11:59;97534.19;;;26.57;39.33
78073;BME280;67281;48.770;11.440;2023-07-08T12:14:28;97535.63;;;26.60;39.10
78073;BME280;67281;48.770;11.440;2023-07-08T12:16:55;97526.34;;;26.62;39.30
78073;BME280;67281;48.770;11.440;2023-07-08T12:19:24;97520.56;;;26.65;39.53
78073;BME280;67281;48.770;11.440;2023-07-08T12:21:55;97523.88;;;26.67;38.83
78073;BME280;67281;48.770;11.440;2023-07-08T12:24:22;97521.81;;;26.69;39.06
78073;BME280;67281;48.770;11.440;2023-07-08T12:26:53;97517.06;;;26.71;39.53
78073;BME280;67281;48.770;11.440;2023-07-08T12:29:20;97513.13;;;26.74;38.93
78073;BME280;67281;48.770;11.440;2023-07-08T12:31:47;97516.22;;;26.77;39.21
78073;BME280;67281;48.770;11.440;2023-07-08T12:34:15;97515.19;;;26.78;39.00
78073;BME280;67281;48.770;11.440;2023-07-08T12:36:44;97513.13;;;26.80;39.16
78073;BME280;67281;48.770;11.440;2023-07-08T12:39:14;97520.16;;;26.81;39.11
78073;BME280;67281;48.770;11.440;2023-07-08T12:41:43;97518.09;;;26.83;38.79
78073;BME280;67281;48.770;11.440;2023-07-08T12:44:20;97517.88;;;26.85;38.92
78073;BME280;67281;48.770;11.440;2023-07-08T12:46:50;97507.97;;;26.85;38.93
78073;BME280;67281;48.770;11.440;2023-07-08T12:49:19;97518.31;;;26.89;38.47
78073;BME280;67281;48.770;11.440;2023-07-08T12:51:47;97515.22;;;26.92;38.54
78073;BME280;67281;48.770;11.440;2023-07-08T12:54:14;97515.63;;;26.95;38.48
78073;BME280;67281;48.770;11.440;2023-07-08T12:56:45;97514.44;;;26.98;38.68
78073;BME280;67281;48.770;11.440;2023-07-08T12:59:19;97519.59;;;26.99;39.04
78073;BME280;67281;48.770;11.440;2023-07-08T13:01:48;97515.06;;;27.00;38.77
78073;BME280;67281;48.770;11.440;2023-07-08T13:04:16;97519.00;;;27.04;38.58
78073;BME280;67281;48.770;11.440;2023-07-08T13:06:46;97517.75;;;27.06;39.03
78073;BME280;67281;48.770;11.440;2023-07-08T13:09:43;97511.13;;;27.09;37.99
78073;BME280;67281;48.770;11.440;2023-07-08T13:12:15;97516.31;;;27.10;38.55
78073;BME280;67281;48.770;11.440;2023-07-08T13:14:43;97517.97;;;27.11;38.53
78073;BME280;67281;48.770;11.440;2023-07-08T13:17:13;97519.44;;;27.14;38.51
78073;BME280;67281;48.770;11.440;2023-07-08T13:19:42;97521.72;;;27.17;38.12
78073;BME280;67281;48.770;11.440;2023-07-08T13:22:20;97522.94;;;27.21;38.47
78073;BME280;67281;48.770;11.440;2023-07-08T13:24:48;97523.16;;;27.26;38.57
78073;BME280;67281;48.770;11.440;2023-07-08T13:27:22;97523.38;;;27.25;37.96
78073;BME280;67281;48.770;11.440;2023-07-08T13:29:53;97515.28;;;27.25;38.05
78073;BME280;67281;48.770;11.440;2023-07-08T13:32:29;97517.56;;;27.28;38.17
78073;BME280;67281;48.770;11.440;2023-07-08T13:34:56;97517.38;;;27.29;37.79
78073;BME280;67281;48.770;11.440;2023-07-08T13:37:23;97510.34;;;27.35;38.55
78073;BME280;67281;48.770;11.440;2023-07-08T13:39:53;97502.88;;;27.37;37.82
78073;BME280;67281;48.770;11.440;2023-07-08T13:42:21;97514.88;;;27.41;38.06
78073;BME280;67281;48.770;11.440;2023-07-08T13:44:49;97509.09;;;27.44;38.19
78073;BME280;67281;48.770;11.440;2023-07-08T13:47:42;97516.94;;;27.52;37.46